sensor_id;sensor_type;location;lat;lon;timestamp;P1;durP1;ratioP1;P2;durP2;ratioP2
63499;SDS011;49654;51.142;14.924;2024-03-06T00:02:20;47.43;;;29.60;;
63499;SDS011;49654;51.142;14.924;2024-03-06T00:04:47;45.37;;;26.93;;
63499;SDS011;49654;51.142;14.924;2024-03-06T00:07:14;44.57;;;28.93;;
63499;SDS011;49654;51.142;14.924;2024-03-06T00:09:42;46.33;;;28.70;;
63499;SDS011;49654;51.142;14.924;2024-03-06T00:12:10;50.17;;;29.60;;
63499;SDS011;49654;51.142;14.924;2024-03-06T00:14:37;50.17;;;29.43;;
63499;SDS011;49654;51.142;14.924;2024-03-06T00:17:04;43.90;;;27.10;;
63499;SDS011;49654;51.142;14.924;2024-03-06T00:19:32;43.57;;;27.47;;
63499;SDS011;49654;51.142;14.924;2024-03-06T00:21:59;46.27;;;27.80;;
63499;SDS011;49654;51.142;14.924;2024-03-06T00:24:26;44.70;;;28.27;;
63499;SDS011;49654;51.142;14.924;2024-03-06T00:26:54;47.67;;;27.70;;
63499;SDS011;49654;51.142;14.924;2024-03-06T00:29:22;52.47;;;29.97;;
63499;SDS011;49654;51.142;14.924;2024-03-06T00:31:49;47.17;;;27.53;;
63499;SDS011;49654;51.142;14.924;2024-03-06T00:34:16;44.83;;;26.97;;
63499;SDS011;49654;51.142;14.924;2024-03-06T00:36:43;44.90;;;27.47;;
63499;SDS011;49654;51.142;14.924;2024-03-06T00:39:10;39.27;;;25.07;;
63499;SDS011;49654;51.142;14.924;2024-03-06T00:41:40;43.87;;;26.70;;
63499;SDS011;49654;51.142;14.924;2024-03-06T00:44:08;45.40;;;27.47;;
63499;SDS011;49654;51.142;14.924;2024-03-06T00:46:35;45.33;;;27.23;;
63499;SDS011;49654;51.142;14.924;2024-03-06T00:49:02;47.90;;;28.37;;
63499;SDS011;49654;51.142;14.924;2024-03-06T00:51:29;41.43;;;25.27;;
63499;SDS011;49654;51.142;14.924;2024-03-06T00:53:57;41.67;;;24.33;;
63499;SDS011;49654;51.142;14.924;2024-03-06T00:56:24;43.27;;;27.07;;
63499;SDS011;49654;51.142;14.924;2024-03-06T00:58:51;42.70;;;26.97;;
63499;SDS011;49654;51.142;14.924;2024-03-06T01:01:19;46.07;;;27.97;;
63499;SDS011;49654;51.142;14.924;2024-03-06T01:03:46;37.37;;;25.13;;
63499;SDS011;49654;51.142;14.924;2024-03-06T01:06:13;46.37;;;27.27;;
63499;SDS011;49654;51.142;14.924;2024-03-06T01:08:40;44.77;;;26.90;;
63499;SDS011;49654;51.142;14.924;2024-03-06T01:11:07;44.20;;;27.67;;
63499;SDS011;49654;51.142;14.924;2024-03-06T01:13:34;47.37;;;29.40;;
63499;SDS011;49654;51.142;14.924;2024-03-06T01:16:01;48.87;;;29.70;;
63499;SDS011;49654;51.142;14.924;2024-03-06T01:18:29;46.10;;;29.43;;
63499;SDS011;49654;51.142;14.924;2024-03-06T01:20:56;45.70;;;28.40;;
63499;SDS011;49654;51.142;14.924;2024-03-06T01:23:23;43.40;;;28.23;;
63499;SDS011;49654;51.142;14.924;2024-03-06T01:25:50;44.00;;;27.93;;
63499;SDS011;49654;51.142;14.924;2024-03-06T01:28:16;48.37;;;29.60;;
63499;SDS011;49654;51.142;14.924;2024-03-06T01:30:43;45.57;;;27.60;;
63499;SDS011;49654;51.142;14.924;2024-03-06T01:33:10;47.60;;;29.20;;
63499;SDS011;49654;51.142;14.924;2024-03-06T01:35:39;45.63;;;28.63;;
63499;SDS011;49654;51.142;14.924;2024-03-06T01:38:05;45.60;;;30.07;;
63499;SDS011;49654;51.142;14.924;2024-03-06T01:40:34;47.97;;;29.03;;
63499;SDS011;49654;51.142;14.924;2024-03-06T01:43:01;45.27;;;28.37;;
63499;SDS011;49654;51.142;14.924;2024-03-06T01:45:28;44.77;;;28.87;;
63499;SDS011;49654;51.142;14.924;2024-03-06T01:47:56;52.40;;;29.90;;
63499;SDS011;49654;51.142;14.924;2024-03-06T01:50:23;52.83;;;32.47;;
63499;SDS011;49654;51.142;14.924;2024-03-06T01:52:52;48.00;;;30.63;;
63499;SDS011;49654;51.142;14.924;2024-03-06T01:55:19;53.67;;;32.90;;
63499;SDS011;49654;51.142;14.924;2024-03-06T01:57:46;52.13;;;31.83;;
63499;SDS011;49654;51.142;14.924;2024-03-06T02:00:13;51.80;;;32.90;;
63499;SDS011;49654;51.142;14.924;2024-03-06T02:02:42;50.97;;;32.63;;
63499;SDS011;49654;51.142;14.924;2024-03-06T02:05:09;50.42;;;32.38;;
63499;SDS011;49654;51.142;14.924;2024-03-06T02:07:37;50.77;;;31.17;;
63499;SDS011;49654;51.142;14.924;2024-03-06T02:10:08;48.13;;;31.67;;
63499;SDS011;49654;51.142;14.924;2024-03-06T02:12:37;50.87;;;33.23;;
63499;SDS011;49654;51.142;14.924;2024-03-06T02:15:05;53.13;;;33.07;;
63499;SDS011;49654;51.142;14.924;2024-03-06T02:17:34;51.87;;;32.20;;
63499;SDS011;49654;51.142;14.924;2024-03-06T02:20:01;51.47;;;31.50;;
63499;SDS011;49654;51.142;14.924;2024-03-06T02:22:32;51.30;;;32.87;;
63499;SDS011;49654;51.142;14.924;2024-03-06T02:24:59;49.90;;;31.70;;
63499;SDS011;49654;51.142;14.924;2024-03-06T02:27:26;53.40;;;32.57;;
63499;SDS011;49654;51.142;14.924;2024-03-06T02:29:53;46.57;;;31.10;;
63499;SDS011;49654;51.142;14.924;2024-03-06T02:32:20;50.40;;;33.13;;
63499;SDS011;49654;51.142;14.924;2024-03-06T02:34:48;50.10;;;30.87;;
63499;SDS011;49654;51.142;14.924;2024-03-06T02:37:15;48.97;;;32.57;;
63499;SDS011;49654;51.142;14.924;2024-03-06T02:39:44;49.73;;;32.57;;
63499;SDS011;49654;51.142;14.924;2024-03-06T02:42:11;49.50;;;31.83;;
63499;SDS011;49654;51.142;14.924;2024-03-06T02:44:39;48.67;;;31.37;;
63499;SDS011;49654;51.142;14.924;2024-03-06T02:47:06;49.23;;;31.33;;
63499;SDS011;49654;51.142;14.924;2024-03-06T02:49:33;50.90;;;32.17;;
63499;SDS011;49654;51.142;14.924;2024-03-06T02:52:00;48.03;;;31.57;;
63499;SDS011;49654;51.142;14.924;2024-03-06T02:54:27;47.67;;;31.13;;
63499;SDS011;49654;51.142;14.924;2024-03-06T02:56:56;51.60;;;31.83;;
63499;SDS011;49654;51.142;14.924;2024-03-06T02:59:22;47.83;;;32.47;;
63499;SDS011;49654;51.142;14.924;2024-03-06T03:01:50;51.57;;;32.30;;
63499;SDS011;49654;51.142;14.924;2024-03-06T03:04:16;50.50;;;31.83;;
63499;SDS011;49654;51.142;14.924;2024-03-06T03:06:43;49.23;;;32.43;;
63499;SDS011;49654;51.142;14.924;2024-03-06T03:09:10;49.97;;;30.43;;
63499;SDS011;49654;51.142;14.924;2024-03-06T03:11:38;51.03;;;32.93;;
63499;SDS011;49654;51.142;14.924;2024-03-06T03:14:06;51.80;;;32.43;;
63499;SDS011;49654;51.142;14.924;2024-03-06T03:16:33;51.93;;;32.53;;
63499;SDS011;49654;51.142;14.924;2024-03-06T03:19:01;51.57;;;30.37;;
63499;SDS011;49654;51.142;14.924;2024-03-06T03:21:28;54.93;;;32.17;;
63499;SDS011;49654;51.142;14.924;2024-03-06T03:23:55;50.10;;;31.27;;
63499;SDS011;49654;51.142;14.924;2024-03-06T03:26:22;50.43;;;31.47;;
63499;SDS011;49654;51.142;14.924;2024-03-06T03:28:49;54.87;;;33.33;;
63499;SDS011;49654;51.142;14.924;2024-03-06T03:31:17;55.73;;;33.27;;
63499;SDS011;49654;51.142;14.924;2024-03-06T03:33:44;59.90;;;32.93;;
63499;SDS011;49654;51.142;14.924;2024-03-06T03:36:10;61.17;;;36.33;;
63499;SDS011;49654;51.142;14.924;2024-03-06T03:38:37;64.60;;;36.27;;
63499;SDS011;49654;51.142;14.924;2024-03-06T03:41:09;65.43;;;38.20;;
63499;SDS011;49654;51.142;14.924;2024-03-06T03:43:37;70.17;;;37.67;;
63499;SDS011;49654;51.142;14.924;2024-03-06T03:46:05;72.40;;;39.23;;
63499;SDS011;49654;51.142;14.924;2024-03-06T03:48:34;68.40;;;37.67;;
63499;SDS011;49654;51.142;14.924;2024-03-06T03:51:02;68.40;;;37.63;;
63499;SDS011;49654;51.142;14.924;2024-03-06T03:53:30;74.10;;;39.47;;
63499;SDS011;49654;51.142;14.924;2024-03-06T03:55:57;70.23;;;38.77;;
63499;SDS011;49654;51.142;14.924;2024-03-06T03:58:24;77.50;;;40.93;;
63499;SDS011;49654;51.142;14.924;2024-03-06T04:00:50;77.23;;;41.27;;
63499;SDS011;49654;51.142;14.924;2024-03-06T04:03:18;71.10;;;40.67;;
63499;SDS011;49654;51.142;14.924;2024-03-06T04:05:47;75.33;;;39.63;;
63499;SDS011;49654;51.142;14.924;2024-03-06T04:08:15;74.70;;;40.73;;
63499;SDS011;49654;51.142;14.924;2024-03-06T04:10:42;76.17;;;39.93;;
63499;SDS011;49654;51.142;14.924;2024-03-06T04:13:10;70.90;;;39.90;;
63499;SDS011;49654;51.142;14.924;2024-03-06T04:15:38;72.40;;;40.47;;
63499;SDS011;49654;51.142;14.924;2024-03-06T04:18:05;74.43;;;38.70;;
63499;SDS011;49654;51.142;14.924;2024-03-06T04:20:32;72.87;;;40.90;;
63499;SDS011;49654;51.142;14.924;2024-03-06T04:23:00;73.57;;;39.53;;
63499;SDS011;49654;51.142;14.924;2024-03-06T04:25:27;65.93;;;40.47;;
63499;SDS011;49654;51.142;14.924;2024-03-06T04:27:54;66.50;;;38.63;;
63499;SDS011;49654;51.142;14.924;2024-03-06T04:30:21;74.23;;;39.40;;
63499;SDS011;49654;51.142;14.924;2024-03-06T04:32:48;63.37;;;38.33;;
63499;SDS011;49654;51.142;14.924;2024-03-06T04:35:15;76.93;;;39.23;;
63499;SDS011;49654;51.142;14.924;2024-03-06T04:37:42;74.53;;;38.90;;
63499;SDS011;49654;51.142;14.924;2024-03-06T04:40:11;109.97;;;39.00;;
63499;SDS011;49654;51.142;14.924;2024-03-06T04:42:40;56.30;;;36.23;;
63499;SDS011;49654;51.142;14.924;2024-03-06T04:45:10;57.20;;;36.97;;
63499;SDS011;49654;51.142;14.924;2024-03-06T04:47:37;63.10;;;37.23;;
63499;SDS011;49654;51.142;14.924;2024-03-06T04:50:08;52.93;;;34.70;;
63499;SDS011;49654;51.142;14.924;2024-03-06T04:52:36;114.70;;;35.87;;
63499;SDS011;49654;51.142;14.924;2024-03-06T04:55:03;56.33;;;34.50;;
63499;SDS011;49654;51.142;14.924;2024-03-06T04:57:32;50.90;;;33.70;;
63499;SDS011;49654;51.142;14.924;2024-03-06T04:59:59;81.17;;;34.80;;
63499;SDS011;49654;51.142;14.924;2024-03-06T05:02:28;51.57;;;35.30;;
63499;SDS011;49654;51.142;14.924;2024-03-06T05:04:55;55.00;;;35.73;;
63499;SDS011;49654;51.142;14.924;2024-03-06T05:07:22;53.67;;;35.73;;
63499;SDS011;49654;51.142;14.924;2024-03-06T05:09:48;53.33;;;35.17;;
63499;SDS011;49654;51.142;14.924;2024-03-06T05:12:15;117.10;;;37.10;;
63499;SDS011;49654;51.142;14.924;2024-03-06T05:14:44;57.57;;;35.23;;
63499;SDS011;49654;51.142;14.924;2024-03-06T05:17:10;58.57;;;34.53;;
63499;SDS011;49654;51.142;14.924;2024-03-06T05:19:37;100.43;;;39.83;;
63499;SDS011;49654;51.142;14.924;2024-03-06T05:22:04;65.23;;;36.83;;
63499;SDS011;49654;51.142;14.924;2024-03-06T05:24:32;55.57;;;36.27;;
63499;SDS011;49654;51.142;14.924;2024-03-06T05:26:59;93.00;;;36.27;;
63499;SDS011;49654;51.142;14.924;2024-03-06T05:29:25;49.77;;;32.73;;
63499;SDS011;49654;51.142;14.924;2024-03-06T05:31:54;53.40;;;34.07;;
63499;SDS011;49654;51.142;14.924;2024-03-06T05:34:21;53.63;;;36.07;;
63499;SDS011;49654;51.142;14.924;2024-03-06T05:36:48;50.93;;;34.10;;
63499;SDS011;49654;51.142;14.924;2024-03-06T05:39:15;76.87;;;34.67;;
63499;SDS011;49654;51.142;14.924;2024-03-06T05:41:43;52.77;;;34.40;;
63499;SDS011;49654;51.142;14.924;2024-03-06T05:44:10;54.80;;;33.13;;
63499;SDS011;49654;51.142;14.924;2024-03-06T05:46:37;118.87;;;33.97;;
63499;SDS011;49654;51.142;14.924;2024-03-06T05:49:06;53.03;;;32.77;;
63499;SDS011;49654;51.142;14.924;2024-03-06T05:51:33;94.50;;;32.93;;
63499;SDS011;49654;51.142;14.924;2024-03-06T05:53:59;45.90;;;31.03;;
63499;SDS011;49654;51.142;14.924;2024-03-06T05:56:26;51.93;;;32.90;;
63499;SDS011;49654;51.142;14.924;2024-03-06T05:58:53;50.73;;;33.00;;
63499;SDS011;49654;51.142;14.924;2024-03-06T06:01:20;48.13;;;32.37;;
63499;SDS011;49654;51.142;14.924;2024-03-06T06:03:47;89.57;;;32.33;;
63499;SDS011;49654;51.142;14.924;2024-03-06T06:06:16;50.70;;;32.83;;
63499;SDS011;49654;51.142;14.924;2024-03-06T06:08:44;48.23;;;31.40;;
63499;SDS011;49654;51.142;14.924;2024-03-06T06:11:11;89.30;;;33.40;;
63499;SDS011;49654;51.142;14.924;2024-03-06T06:13:38;56.90;;;34.13;;
63499;SDS011;49654;51.142;14.924;2024-03-06T06:16:06;119.60;;;35.13;;
63499;SDS011;49654;51.142;14.924;2024-03-06T06:18:33;93.43;;;34.60;;
63499;SDS011;49654;51.142;14.924;2024-03-06T06:21:00;58.30;;;34.47;;
63499;SDS011;49654;51.142;14.924;2024-03-06T06:23:28;80.83;;;37.07;;
63499;SDS011;49654;51.142;14.924;2024-03-06T06:25:55;65.50;;;35.87;;
63499;SDS011;49654;51.142;14.924;2024-03-06T06:28:22;96.50;;;40.07;;
63499;SDS011;49654;51.142;14.924;2024-03-06T06:30:49;80.90;;;39.00;;
63499;SDS011;49654;51.142;14.924;2024-03-06T06:33:18;126.87;;;36.57;;
63499;SDS011;49654;51.142;14.924;2024-03-06T06:35:45;59.63;;;35.60;;
63499;SDS011;49654;51.142;14.924;2024-03-06T06:38:12;123.10;;;38.03;;
63499;SDS011;49654;51.142;14.924;2024-03-06T06:40:40;53.27;;;33.70;;
63499;SDS011;49654;51.142;14.924;2024-03-06T06:43:07;93.90;;;37.60;;
63499;SDS011;49654;51.142;14.924;2024-03-06T06:45:34;58.67;;;34.20;;
63499;SDS011;49654;51.142;14.924;2024-03-06T06:48:03;60.50;;;34.97;;
63499;SDS011;49654;51.142;14.924;2024-03-06T06:50:30;72.80;;;37.77;;
63499;SDS011;49654;51.142;14.924;2024-03-06T06:52:59;109.17;;;41.80;;
63499;SDS011;49654;51.142;14.924;2024-03-06T06:55:26;62.23;;;36.57;;
63499;SDS011;49654;51.142;14.924;2024-03-06T06:57:54;63.93;;;35.10;;
63499;SDS011;49654;51.142;14.924;2024-03-06T07:00:21;63.97;;;37.83;;
63499;SDS011;49654;51.142;14.924;2024-03-06T07:02:50;73.27;;;37.23;;
63499;SDS011;49654;51.142;14.924;2024-03-06T07:05:17;91.20;;;38.97;;
63499;SDS011;49654;51.142;14.924;2024-03-06T07:07:44;63.90;;;35.73;;
63499;SDS011;49654;51.142;14.924;2024-03-06T07:10:11;62.33;;;37.20;;
63499;SDS011;49654;51.142;14.924;2024-03-06T07:12:39;68.37;;;37.53;;
63499;SDS011;49654;51.142;14.924;2024-03-06T07:15:07;58.40;;;34.80;;
63499;SDS011;49654;51.142;14.924;2024-03-06T07:17:34;58.57;;;35.77;;
63499;SDS011;49654;51.142;14.924;2024-03-06T07:20:01;60.90;;;35.50;;
63499;SDS011;49654;51.142;14.924;2024-03-06T07:22:30;51.90;;;34.33;;
63499;SDS011;49654;51.142;14.924;2024-03-06T07:24:59;63.60;;;35.13;;
63499;SDS011;49654;51.142;14.924;2024-03-06T07:27:26;56.27;;;35.07;;
63499;SDS011;49654;51.142;14.924;2024-03-06T07:29:53;56.70;;;35.17;;
63499;SDS011;49654;51.142;14.924;2024-03-06T07:32:22;79.50;;;38.20;;
63499;SDS011;49654;51.142;14.924;2024-03-06T07:34:49;66.70;;;39.73;;
63499;SDS011;49654;51.142;14.924;2024-03-06T07:37:16;67.70;;;37.83;;
63499;SDS011;49654;51.142;14.924;2024-03-06T07:39:43;65.23;;;38.83;;
63499;SDS011;49654;51.142;14.924;2024-03-06T07:42:10;67.60;;;38.63;;
63499;SDS011;49654;51.142;14.924;2024-03-06T07:44:38;103.73;;;41.00;;
63499;SDS011;49654;51.142;14.924;2024-03-06T07:47:05;76.27;;;41.77;;
63499;SDS011;49654;51.142;14.924;2024-03-06T07:49:34;91.03;;;40.27;;
63499;SDS011;49654;51.142;14.924;2024-03-06T07:52:01;104.63;;;39.57;;
63499;SDS011;49654;51.142;14.924;2024-03-06T07:54:29;66.07;;;38.85;;
63499;SDS011;49654;51.142;14.924;2024-03-06T07:56:55;78.95;;;42.85;;
63499;SDS011;49654;51.142;14.924;2024-03-06T07:59:23;64.10;;;39.40;;
63499;SDS011;49654;51.142;14.924;2024-03-06T08:01:50;68.63;;;40.07;;
63499;SDS011;49654;51.142;14.924;2024-03-06T08:04:18;79.60;;;39.10;;
63499;SDS011;49654;51.142;14.924;2024-03-06T08:06:46;64.37;;;38.00;;
63499;SDS011;49654;51.142;14.924;2024-03-06T08:09:13;64.60;;;37.53;;
63499;SDS011;49654;51.142;14.924;2024-03-06T08:11:42;64.57;;;37.53;;
63499;SDS011;49654;51.142;14.924;2024-03-06T08:14:09;57.63;;;37.17;;
63499;SDS011;49654;51.142;14.924;2024-03-06T08:16:35;81.80;;;39.20;;
63499;SDS011;49654;51.142;14.924;2024-03-06T08:19:04;60.00;;;37.90;;
63499;SDS011;49654;51.142;14.924;2024-03-06T08:21:31;68.07;;;38.30;;
63499;SDS011;49654;51.142;14.924;2024-03-06T08:23:59;71.65;;;39.97;;
63499;SDS011;49654;51.142;14.924;2024-03-06T08:26:26;79.57;;;42.07;;
63499;SDS011;49654;51.142;14.924;2024-03-06T08:28:53;68.10;;;38.65;;
63499;SDS011;49654;51.142;14.924;2024-03-06T08:31:20;63.37;;;38.40;;
63499;SDS011;49654;51.142;14.924;2024-03-06T08:33:47;58.13;;;36.70;;
63499;SDS011;49654;51.142;14.924;2024-03-06T08:36:14;61.83;;;37.87;;
63499;SDS011;49654;51.142;14.924;2024-03-06T08:38:41;60.33;;;37.53;;
63499;SDS011;49654;51.142;14.924;2024-03-06T08:41:09;65.50;;;35.10;;
63499;SDS011;49654;51.142;14.924;2024-03-06T08:43:36;60.30;;;36.10;;
63499;SDS011;49654;51.142;14.924;2024-03-06T08:46:03;60.15;;;36.75;;
63499;SDS011;49654;51.142;14.924;2024-03-06T08:48:30;62.25;;;38.95;;
63499;SDS011;49654;51.142;14.924;2024-03-06T08:50:57;62.58;;;37.88;;
63499;SDS011;49654;51.142;14.924;2024-03-06T08:53:24;66.97;;;38.78;;
63499;SDS011;49654;51.142;14.924;2024-03-06T08:55:51;64.60;;;39.78;;
63499;SDS011;49654;51.142;14.924;2024-03-06T08:58:19;71.73;;;41.43;;
63499;SDS011;49654;51.142;14.924;2024-03-06T09:00:47;66.93;;;40.55;;
63499;SDS011;49654;51.142;14.924;2024-03-06T09:03:14;75.25;;;43.45;;
63499;SDS011;49654;51.142;14.924;2024-03-06T09:05:42;69.95;;;41.53;;
63499;SDS011;49654;51.142;14.924;2024-03-06T09:08:08;68.55;;;40.40;;
63499;SDS011;49654;51.142;14.924;2024-03-06T09:10:37;70.70;;;41.13;;
63499;SDS011;49654;51.142;14.924;2024-03-06T09:13:04;71.40;;;41.00;;
63499;SDS011;49654;51.142;14.924;2024-03-06T09:15:32;64.70;;;39.42;;
63499;SDS011;49654;51.142;14.924;2024-03-06T09:17:59;64.47;;;39.60;;
63499;SDS011;49654;51.142;14.924;2024-03-06T09:20:26;69.25;;;39.60;;
63499;SDS011;49654;51.142;14.924;2024-03-06T09:22:53;65.57;;;38.33;;
63499;SDS011;49654;51.142;14.924;2024-03-06T09:25:22;64.90;;;37.80;;
63499;SDS011;49654;51.142;14.924;2024-03-06T09:27:49;58.38;;;36.58;;
63499;SDS011;49654;51.142;14.924;2024-03-06T09:30:16;63.75;;;38.95;;
63499;SDS011;49654;51.142;14.924;2024-03-06T09:32:44;70.30;;;39.20;;
63499;SDS011;49654;51.142;14.924;2024-03-06T09:35:11;87.40;;;40.63;;
63499;SDS011;49654;51.142;14.924;2024-03-06T09:37:39;71.32;;;39.40;;
63499;SDS011;49654;51.142;14.924;2024-03-06T09:40:08;63.80;;;39.83;;
63499;SDS011;49654;51.142;14.924;2024-03-06T09:42:36;65.35;;;38.53;;
63499;SDS011;49654;51.142;14.924;2024-03-06T09:45:04;66.80;;;39.70;;
63499;SDS011;49654;51.142;14.924;2024-03-06T09:47:32;60.53;;;38.07;;
63499;SDS011;49654;51.142;14.924;2024-03-06T09:50:02;63.83;;;39.47;;
63499;SDS011;49654;51.142;14.924;2024-03-06T09:52:31;65.07;;;37.63;;
63499;SDS011;49654;51.142;14.924;2024-03-06T09:55:00;63.05;;;38.60;;
63499;SDS011;49654;51.142;14.924;2024-03-06T09:57:28;66.37;;;38.33;;
63499;SDS011;49654;51.142;14.924;2024-03-06T09:59:55;59.22;;;36.58;;
63499;SDS011;49654;51.142;14.924;2024-03-06T10:02:39;59.28;;;36.95;;
63499;SDS011;49654;51.142;14.924;2024-03-06T10:05:21;61.22;;;37.63;;
63499;SDS011;49654;51.142;14.924;2024-03-06T10:07:49;61.60;;;37.00;;
63499;SDS011;49654;51.142;14.924;2024-03-06T10:10:17;64.93;;;38.20;;
63499;SDS011;49654;51.142;14.924;2024-03-06T10:12:44;64.38;;;38.28;;
63499;SDS011;49654;51.142;14.924;2024-03-06T10:15:13;61.38;;;37.88;;
63499;SDS011;49654;51.142;14.924;2024-03-06T10:17:40;62.00;;;38.08;;
63499;SDS011;49654;51.142;14.924;2024-03-06T10:20:17;62.13;;;36.28;;
63499;SDS011;49654;51.142;14.924;2024-03-06T10:22:49;62.53;;;37.55;;
63499;SDS011;49654;51.142;14.924;2024-03-06T10:25:18;56.72;;;36.40;;
63499;SDS011;49654;51.142;14.924;2024-03-06T10:27:46;56.17;;;36.00;;
63499;SDS011;49654;51.142;14.924;2024-03-06T10:30:13;59.05;;;36.40;;
63499;SDS011;49654;51.142;14.924;2024-03-06T10:32:41;56.33;;;37.30;;
63499;SDS011;49654;51.142;14.924;2024-03-06T10:35:17;58.47;;;36.00;;
63499;SDS011;49654;51.142;14.924;2024-03-06T10:37:46;52.92;;;34.83;;
63499;SDS011;49654;51.142;14.924;2024-03-06T10:40:14;55.63;;;34.63;;
63499;SDS011;49654;51.142;14.924;2024-03-06T10:42:42;52.03;;;34.80;;
63499;SDS011;49654;51.142;14.924;2024-03-06T10:45:12;55.55;;;33.95;;
63499;SDS011;49654;51.142;14.924;2024-03-06T10:47:40;52.45;;;34.33;;
63499;SDS011;49654;51.142;14.924;2024-03-06T10:50:09;57.25;;;35.70;;
63499;SDS011;49654;51.142;14.924;2024-03-06T10:52:37;54.90;;;36.17;;
63499;SDS011;49654;51.142;14.924;2024-03-06T10:55:07;53.08;;;34.38;;
63499;SDS011;49654;51.142;14.924;2024-03-06T10:57:36;51.78;;;33.00;;
63499;SDS011;49654;51.142;14.924;2024-03-06T11:00:03;54.28;;;36.72;;
63499;SDS011;49654;51.142;14.924;2024-03-06T11:02:32;47.75;;;31.08;;
63499;SDS011;49654;51.142;14.924;2024-03-06T11:05:01;53.13;;;33.83;;
63499;SDS011;49654;51.142;14.924;2024-03-06T11:07:30;49.55;;;33.70;;
63499;SDS011;49654;51.142;14.924;2024-03-06T11:09:58;49.33;;;33.40;;
63499;SDS011;49654;51.142;14.924;2024-03-06T11:12:33;55.35;;;36.88;;
63499;SDS011;49654;51.142;14.924;2024-03-06T11:15:08;55.20;;;34.78;;
63499;SDS011;49654;51.142;14.924;2024-03-06T11:17:36;53.13;;;34.42;;
63499;SDS011;49654;51.142;14.924;2024-03-06T11:20:13;52.08;;;34.38;;
63499;SDS011;49654;51.142;14.924;2024-03-06T11:23:02;50.72;;;33.05;;
63499;SDS011;49654;51.142;14.924;2024-03-06T11:28:25;48.20;;;33.20;;
63499;SDS011;49654;51.142;14.924;2024-03-06T11:30:57;49.72;;;33.28;;
63499;SDS011;49654;51.142;14.924;2024-03-06T11:33:28;52.95;;;35.80;;
63499;SDS011;49654;51.142;14.924;2024-03-06T11:36:17;52.40;;;34.67;;
63499;SDS011;49654;51.142;14.924;2024-03-06T11:38:46;50.17;;;34.03;;
63499;SDS011;49654;51.142;14.924;2024-03-06T11:41:14;54.83;;;34.30;;
63499;SDS011;49654;51.142;14.924;2024-03-06T11:43:45;49.90;;;33.53;;
63499;SDS011;49654;51.142;14.924;2024-03-06T11:46:12;49.70;;;33.58;;
63499;SDS011;49654;51.142;14.924;2024-03-06T11:48:40;54.75;;;33.28;;
63499;SDS011;49654;51.142;14.924;2024-03-06T11:51:07;50.08;;;32.35;;
63499;SDS011;49654;51.142;14.924;2024-03-06T11:53:35;52.33;;;33.65;;
63499;SDS011;49654;51.142;14.924;2024-03-06T11:56:05;47.67;;;32.72;;
63499;SDS011;49654;51.142;14.924;2024-03-06T11:58:33;51.00;;;33.13;;
63499;SDS011;49654;51.142;14.924;2024-03-06T12:01:02;53.15;;;32.92;;
63499;SDS011;49654;51.142;14.924;2024-03-06T12:03:29;49.10;;;33.10;;
63499;SDS011;49654;51.142;14.924;2024-03-06T12:05:57;48.75;;;33.50;;
63499;SDS011;49654;51.142;14.924;2024-03-06T12:08:24;49.50;;;33.58;;
63499;SDS011;49654;51.142;14.924;2024-03-06T12:10:52;51.10;;;33.90;;
63499;SDS011;49654;51.142;14.924;2024-03-06T12:13:20;52.47;;;33.47;;
63499;SDS011;49654;51.142;14.924;2024-03-06T12:15:48;54.35;;;34.65;;
63499;SDS011;49654;51.142;14.924;2024-03-06T12:18:17;45.78;;;32.47;;
63499;SDS011;49654;51.142;14.924;2024-03-06T12:20:44;48.55;;;33.20;;
63499;SDS011;49654;51.142;14.924;2024-03-06T12:23:20;47.90;;;32.83;;
63499;SDS011;49654;51.142;14.924;2024-03-06T12:25:48;52.65;;;35.95;;
63499;SDS011;49654;51.142;14.924;2024-03-06T12:28:15;47.80;;;33.50;;
63499;SDS011;49654;51.142;14.924;2024-03-06T12:30:43;54.42;;;34.95;;
63499;SDS011;49654;51.142;14.924;2024-03-06T12:33:10;46.22;;;33.35;;
63499;SDS011;49654;51.142;14.924;2024-03-06T12:35:44;43.72;;;30.67;;
63499;SDS011;49654;51.142;14.924;2024-03-06T12:38:11;45.95;;;31.77;;
63499;SDS011;49654;51.142;14.924;2024-03-06T12:40:39;48.72;;;30.98;;
63499;SDS011;49654;51.142;14.924;2024-03-06T12:43:06;47.47;;;32.50;;
63499;SDS011;49654;51.142;14.924;2024-03-06T12:45:33;42.58;;;29.45;;
63499;SDS011;49654;51.142;14.924;2024-03-06T12:48:00;49.03;;;32.63;;
63499;SDS011;49654;51.142;14.924;2024-03-06T12:50:28;45.30;;;31.05;;
63499;SDS011;49654;51.142;14.924;2024-03-06T12:52:56;42.85;;;29.48;;
63499;SDS011;49654;51.142;14.924;2024-03-06T12:55:23;47.90;;;33.08;;
63499;SDS011;49654;51.142;14.924;2024-03-06T12:57:51;45.70;;;31.88;;
63499;SDS011;49654;51.142;14.924;2024-03-06T13:00:19;45.50;;;32.00;;
63499;SDS011;49654;51.142;14.924;2024-03-06T13:02:46;49.75;;;31.67;;
63499;SDS011;49654;51.142;14.924;2024-03-06T13:05:13;48.30;;;31.83;;
63499;SDS011;49654;51.142;14.924;2024-03-06T13:07:41;41.38;;;28.77;;
63499;SDS011;49654;51.142;14.924;2024-03-06T13:10:10;42.80;;;27.85;;
63499;SDS011;49654;51.142;14.924;2024-03-06T13:12:38;44.70;;;27.92;;
63499;SDS011;49654;51.142;14.924;2024-03-06T13:15:05;41.40;;;29.30;;
63499;SDS011;49654;51.142;14.924;2024-03-06T13:17:33;42.70;;;29.60;;
63499;SDS011;49654;51.142;14.924;2024-03-06T13:20:00;41.38;;;29.85;;
63499;SDS011;49654;51.142;14.924;2024-03-06T13:22:28;41.17;;;28.27;;
63499;SDS011;49654;51.142;14.924;2024-03-06T13:24:55;45.17;;;29.60;;
63499;SDS011;49654;51.142;14.924;2024-03-06T13:27:24;41.50;;;30.38;;
63499;SDS011;49654;51.142;14.924;2024-03-06T13:29:52;36.45;;;26.75;;
63499;SDS011;49654;51.142;14.924;2024-03-06T13:32:19;39.53;;;26.85;;
63499;SDS011;49654;51.142;14.924;2024-03-06T13:34:46;37.38;;;26.08;;
63499;SDS011;49654;51.142;14.924;2024-03-06T13:37:13;41.30;;;27.95;;
63499;SDS011;49654;51.142;14.924;2024-03-06T13:39:41;42.88;;;27.10;;
63499;SDS011;49654;51.142;14.924;2024-03-06T13:42:08;39.15;;;25.83;;
63499;SDS011;49654;51.142;14.924;2024-03-06T13:44:37;42.00;;;27.27;;
63499;SDS011;49654;51.142;14.924;2024-03-06T13:47:04;42.05;;;27.13;;
63499;SDS011;49654;51.142;14.924;2024-03-06T13:49:34;45.92;;;27.60;;
63499;SDS011;49654;51.142;14.924;2024-03-06T13:52:02;38.72;;;27.10;;
63499;SDS011;49654;51.142;14.924;2024-03-06T13:54:31;38.03;;;25.17;;
63499;SDS011;49654;51.142;14.924;2024-03-06T13:56:58;34.28;;;24.42;;
63499;SDS011;49654;51.142;14.924;2024-03-06T13:59:27;33.33;;;23.45;;
63499;SDS011;49654;51.142;14.924;2024-03-06T14:01:56;34.83;;;23.65;;
63499;SDS011;49654;51.142;14.924;2024-03-06T14:04:24;33.22;;;24.80;;
63499;SDS011;49654;51.142;14.924;2024-03-06T14:06:52;33.72;;;23.90;;
63499;SDS011;49654;51.142;14.924;2024-03-06T14:09:19;35.47;;;24.05;;
63499;SDS011;49654;51.142;14.924;2024-03-06T14:11:49;30.02;;;22.33;;
63499;SDS011;49654;51.142;14.924;2024-03-06T14:14:16;33.28;;;23.73;;
63499;SDS011;49654;51.142;14.924;2024-03-06T14:16:43;31.42;;;23.52;;